Date,TemperatureHighF,TemperatureAvgF,TemperatureLowF,DewpointHighF,DewpointAvgF,DewpointLowF,HumidityHigh,HumidityAvg,HumidityLow,PressureMaxIn,PressureMinIn,WindSpeedMaxMPH,WindSpeedAvgMPH,GustSpeedMaxMPH,PrecipitationSumIn
2013-2-1,41.9,28.3,18.0,29.0,17.9,10.0,86,66,41,30.75,30.55,5,1,0,0.07
2013-2-2,44.6,30.2,19.1,26.0,16.7,9.0,78,60,29,30.86,30.67,4,0,0,0.00
2013-2-3,39.9,31.9,26.0,29.0,19.9,7.0,84,63,32,30.66,30.38,3,0,0,0.00
2013-2-4,40.8,29.9,22.4,27.0,18.6,7.0,87,64,34,30.53,30.36,5,0,0,0.00
2013-2-5,49.4,32.6,21.8,27.0,18.2,10.0,79,58,33,30.58,30.30,8,1,0,0.00
2013-2-6,43.3,33.9,26.0,25.0,20.6,17.0,80,60,40,30.38,30.21,9,0,0,0.00
2013-2-7,45.4,30.4,21.4,21.0,17.1,12.0,71,60,30,30.58,30.32,8,0,0,0.00
2013-2-8,41.9,35.7,26.9,21.0,17.2,10.0,64,47,36,30.42,29.98,11,2,0,0.00
2013-2-9,30.6,23.3,16.2,26.0,17.9,10.0,96,82,43,30.23,29.91,19,1,0,0.03
2013-2-10,25.4,20.3,16.2,23.0,17.7,14.0,93,89,72,30.41,30.23,16,1,0,0.07
2013-2-11,25.8,18.8,9.3,23.0,16.2,5.0,93,89,81,30.59,30.34,10,1,0,0.01
2013-2-12,30.3,16.3,5.0,14.0,8.1,1.0,85,72,48,30.77,30.58,7,1,0,0.04
2013-2-13,35.9,21.3,10.0,20.0,13.7,7.0,87,74,50,30.77,30.52,10,1,0,0.06
2013-2-14,46.1,26.4,14.1,20.0,12.0,-1.0,87,58,27,30.68,30.43,3,0,0,0.01
2013-2-15,40.3,29.2,17.2,9.0,4.2,-3.0,69,38,21,30.77,30.55,16,2,0,0.00
2013-2-16,45.5,30.3,18.3,21.0,9.8,4.0,61,44,26,30.87,30.51,6,1,0,0.00
2013-2-17,44.5,32.2,21.1,17.0,5.6,-2.0,55,34,20,30.52,30.03,7,1,0,0.00
2013-2-18,40.3,28.9,20.0,19.0,3.3,-9.0,63,36,14,30.53,30.06,17,2,0,0.00
2013-2-19,42.9,29.0,15.6,14.0,5.1,-6.0,62,40,14,30.57,30.00,13,1,0,0.00
2013-2-20,31.0,27.0,19.5,28.0,19.3,9.0,94,75,44,30.04,29.88,5,0,0,0.09
2013-2-21,36.0,23.5,15.1,24.0,16.9,12.0,89,77,52,30.30,30.01,4,0,0,0.09
2013-2-22,27.3,20.5,14.3,21.0,11.8,3.0,87,70,47,30.52,30.23,7,1,0,0.01
2013-2-23,30.6,20.1,7.6,22.0,10.3,1.0,91,67,44,30.62,30.10,10,0,0,0.09
2013-2-24,30.0,19.9,7.6,19.0,8.0,1.0,90,62,38,30.41,30.14,17,1,0,0.06
2013-2-25,37.3,24.8,13.8,18.0,7.2,-2.0,67,48,27,30.54,30.31,8,1,0,0.01
2013-2-26,32.4,22.4,14.3,13.0,5.2,-3.0,71,50,24,30.52,30.20,10,2,0,0.00
2013-2-27,34.1,21.8,9.3,10.0,1.8,-4.0,61,44,26,30.81,30.48,10,1,0,0.00
2013-2-28,46.1,28.1,13.5,10.0,2.4,-5.0,59,35,18,30.84,30.59,11,2,0,0.00